createdAt,value
2018-06-03T00:00:49.109Z,101573.59
2018-06-03T00:03:18.681Z,101576.19
2018-06-03T00:05:48.698Z,101570.80
2018-06-03T00:08:24.194Z,101574.05
2018-06-03T00:10:56.124Z,101567.70
2018-06-03T00:13:27.311Z,101570.27
2018-06-03T00:15:56.868Z,101566.51
2018-06-03T00:18:26.575Z,101573.69
2018-06-03T00:22:02.782Z,101568.22
2018-06-03T00:24:32.807Z,101573.75
2018-06-03T00:27:02.391Z,101564.47
2018-06-03T00:29:32.320Z,101570.78
2018-06-03T00:32:02.396Z,101567.52
2018-06-03T00:34:32.944Z,101575.55
2018-06-03T00:37:02.658Z,101574.31
2018-06-03T00:39:32.828Z,101579.80
2018-06-03T00:42:02.317Z,101580.25
2018-06-03T00:44:32.410Z,101580.25
2018-06-03T00:47:02.967Z,101582.72
2018-06-03T00:49:33.335Z,101575.18
2018-06-03T00:52:02.579Z,101573.09
2018-06-03T00:54:32.577Z,101581.06
2018-06-03T00:57:12.752Z,101582.30
2018-06-03T00:59:42.338Z,101587.39
2018-06-03T01:02:12.072Z,101587.00
2018-06-03T01:04:41.629Z,101587.89
2018-06-03T01:07:11.093Z,101596.33
2018-06-03T01:09:40.632Z,101592.56
2018-06-03T01:12:10.105Z,101593.80
2018-06-03T01:14:39.773Z,101595.91
2018-06-03T01:17:10.470Z,101595.09
2018-06-03T01:19:40.301Z,101592.14
2018-06-03T01:22:10.273Z,101588.33
2018-06-03T01:24:39.937Z,101594.61
2018-06-03T01:27:09.377Z,101593.83
2018-06-03T01:29:38.876Z,101589.17
2018-06-03T01:32:08.153Z,101590.95
2018-06-03T01:34:37.447Z,101591.77
2018-06-03T01:37:07.013Z,101593.08
2018-06-03T01:39:36.460Z,101590.13
2018-06-03T01:42:05.899Z,101591.75
2018-06-03T01:44:35.463Z,101591.80
2018-06-03T01:47:05.189Z,101589.31
2018-06-03T01:49:34.862Z,101587.19
2018-06-03T01:52:04.909Z,101581.75
2018-06-03T01:54:34.377Z,101587.22
2018-06-03T01:57:03.915Z,101586.80
2018-06-03T01:59:34.019Z,101580.48
2018-06-03T02:02:03.565Z,101580.52
2018-06-03T02:04:33.012Z,101582.17
2018-06-03T02:07:02.737Z,101575.52
2018-06-03T02:09:32.254Z,101578.41
2018-06-03T02:12:02.162Z,101577.97
2018-06-03T02:14:31.638Z,101579.70
2018-06-03T02:17:01.035Z,101583.89
2018-06-03T02:19:30.580Z,101588.12
2018-06-03T02:22:00.032Z,101588.14
2018-06-03T02:24:30.857Z,101586.89
2018-06-03T02:27:00.291Z,101577.17
2018-06-03T02:29:30.533Z,101578.86
2018-06-03T02:32:00.534Z,101581.38
2018-06-03T02:34:30.098Z,101579.72
2018-06-03T02:36:59.588Z,101577.16
2018-06-03T02:39:29.082Z,101569.14
2018-06-03T02:41:58.606Z,101571.64
2018-06-03T02:44:28.051Z,101574.18
2018-06-03T02:46:58.721Z,101573.79
2018-06-03T02:49:28.842Z,101577.97
2018-06-03T02:51:58.352Z,101572.94
2018-06-03T02:54:28.519Z,101576.77
2018-06-03T02:56:58.122Z,101573.78
2018-06-03T02:59:27.619Z,101582.55
2018-06-03T03:01:57.093Z,101575.89
2018-06-03T03:04:26.632Z,101582.62
2018-06-03T03:06:56.211Z,101584.69
2018-06-03T03:09:26.774Z,101586.77
2018-06-03T03:11:56.443Z,101589.31
2018-06-03T03:14:26.792Z,101584.69
2018-06-03T03:16:56.301Z,101590.13
2018-06-03T03:19:25.911Z,101583.46
2018-06-03T03:21:56.096Z,101584.69
2018-06-03T03:24:25.622Z,101582.97
2018-06-03T03:26:55.249Z,101583.39
2018-06-03T03:29:24.849Z,101580.48
2018-06-03T03:31:54.381Z,101577.50
2018-06-03T03:34:23.845Z,101586.31
2018-06-03T03:36:53.491Z,101585.48
2018-06-03T03:39:22.969Z,101588.01
2018-06-03T03:41:52.464Z,101585.91
2018-06-03T03:44:21.928Z,101584.67
2018-06-03T03:46:51.515Z,101589.27
2018-06-03T03:49:21.032Z,101594.31
2018-06-03T03:51:50.509Z,101590.53
2018-06-03T03:54:20.136Z,101590.51
2018-06-03T03:56:49.607Z,101594.30
2018-06-03T03:59:19.172Z,101592.30
2018-06-03T04:01:48.589Z,101595.53
2018-06-03T04:04:17.784Z,101590.89
2018-06-03T04:06:47.190Z,101598.84
2018-06-03T04:09:17.146Z,101593.88
2018-06-03T04:11:46.748Z,101596.80
2018-06-03T04:14:16.390Z,101597.61
2018-06-03T04:16:45.940Z,101596.77
2018-06-03T04:19:15.182Z,101593.83
2018-06-03T04:21:44.677Z,101599.22
2018-06-03T04:24:14.197Z,101597.61
2018-06-03T04:26:43.641Z,101600.09
2018-06-03T04:29:13.733Z,101590.05
2018-06-03T04:31:43.244Z,101599.30
2018-06-03T04:34:12.668Z,101593.83
2018-06-03T04:36:42.376Z,101597.22
2018-06-03T04:39:12.241Z,101594.72
2018-06-03T04:41:41.803Z,101594.29
2018-06-03T04:44:11.290Z,101598.08
2018-06-03T04:46:40.803Z,101604.78
2018-06-03T04:49:10.269Z,101605.23
2018-06-03T04:51:40.123Z,101601.44
2018-06-03T04:54:09.640Z,101600.63
2018-06-03T04:56:39.519Z,101602.70
2018-06-03T04:59:09.067Z,101609.87
2018-06-03T05:01:38.266Z,101607.26
2018-06-03T05:04:07.866Z,101609.37
2018-06-03T05:06:37.381Z,101608.14
2018-06-03T05:09:08.306Z,101612.34
2018-06-03T05:11:38.103Z,101603.92
2018-06-03T05:14:07.598Z,101605.63
2018-06-03T05:16:37.302Z,101607.23
2018-06-03T05:19:07.024Z,101603.80
2018-06-03T05:21:36.468Z,101601.25
2018-06-03T05:24:06.236Z,101600.88
2018-06-03T05:26:36.261Z,101597.06
2018-06-03T05:29:05.832Z,101599.59
2018-06-03T05:31:36.117Z,101597.44
2018-06-03T05:34:06.000Z,101594.08
2018-06-03T05:36:35.568Z,101593.28
2018-06-03T05:39:07.593Z,101602.47
2018-06-03T05:41:37.213Z,101605.43
2018-06-03T05:44:06.681Z,101602.53
2018-06-03T05:46:36.322Z,101607.97
2018-06-03T05:49:05.894Z,101607.48
2018-06-03T05:51:35.332Z,101614.21
2018-06-03T05:54:05.140Z,101616.36
2018-06-03T05:56:34.729Z,101618.81
2018-06-03T05:59:04.285Z,101622.60
2018-06-03T06:01:33.698Z,101624.70
2018-06-03T06:04:02.866Z,101622.52
2018-06-03T06:06:32.374Z,101615.31
2018-06-03T06:09:01.862Z,101614.80
2018-06-03T06:11:31.395Z,101616.58
2018-06-03T06:14:00.924Z,101618.73
2018-06-03T06:16:30.194Z,101622.60
2018-06-03T06:19:00.531Z,101618.42
2018-06-03T06:21:30.006Z,101622.57
2018-06-03T06:23:59.544Z,101613.40
2018-06-03T06:26:29.151Z,101618.84
2018-06-03T06:28:58.865Z,101617.16
2018-06-03T06:31:28.337Z,101619.16
2018-06-03T06:33:57.926Z,101617.50
2018-06-03T06:36:27.592Z,101618.34
2018-06-03T06:38:57.054Z,101625.41
2018-06-03T06:41:26.469Z,101623.61
2018-06-03T06:43:55.968Z,101631.07
2018-06-03T06:46:25.729Z,101627.73
2018-06-03T06:48:55.935Z,101629.35
2018-06-03T06:51:25.349Z,101626.28
2018-06-03T06:53:55.999Z,101630.55
2018-06-03T06:56:31.198Z,101634.11
2018-06-03T06:59:01.020Z,101633.98
2018-06-03T07:01:30.514Z,101640.00
2018-06-03T07:04:00.408Z,101639.11
2018-06-03T07:06:30.097Z,101644.17
2018-06-03T07:09:00.390Z,101642.22
2018-06-03T07:11:29.953Z,101650.25
2018-06-03T07:13:59.478Z,101641.34
2018-06-03T07:16:28.875Z,101648.88
2018-06-03T07:18:58.399Z,101650.63
2018-06-03T07:21:29.062Z,101649.95
2018-06-03T07:24:01.708Z,101652.91
2018-06-03T07:26:31.759Z,101658.84
2018-06-03T07:29:01.901Z,101656.96
2018-06-03T07:31:33.362Z,101655.48
2018-06-03T07:34:04.589Z,101654.42
2018-06-03T07:36:34.188Z,101657.90
2018-06-03T07:39:07.647Z,101656.25
2018-06-03T07:41:46.774Z,101658.17
2018-06-03T07:44:24.622Z,101657.42
2018-06-03T07:47:04.181Z,101655.44
2018-06-03T07:49:35.064Z,101655.61
2018-06-03T07:52:06.065Z,101659.53
2018-06-03T07:54:37.857Z,101659.30
2018-06-03T08:04:00.312Z,101668.14
2018-06-03T08:06:29.779Z,101666.91
2018-06-03T08:09:02.977Z,101678.92
2018-06-03T08:11:33.813Z,101675.89
2018-06-03T08:14:04.206Z,101671.84
2018-06-03T08:16:37.014Z,101673.66
2018-06-03T08:19:07.813Z,101674.73
2018-06-03T08:21:38.695Z,101671.77
2018-06-03T08:24:10.745Z,101674.02
2018-06-03T08:26:41.095Z,101664.64
2018-06-03T08:29:13.485Z,101669.74
2018-06-03T08:31:45.026Z,101672.38
2018-06-03T08:34:15.928Z,101673.69
2018-06-03T08:36:47.822Z,101674.97
2018-06-03T08:39:19.990Z,101667.55
2018-06-03T08:41:49.966Z,101672.65
2018-06-03T08:44:19.806Z,101671.97
2018-06-03T08:46:51.099Z,101674.56
2018-06-03T08:49:20.422Z,101676.50
2018-06-03T08:51:50.453Z,101679.17
2018-06-03T08:54:21.311Z,101681.84
2018-06-03T08:56:53.544Z,101681.75
2018-06-03T08:59:24.561Z,101686.73
2018-06-03T09:01:55.569Z,101678.05
2018-06-03T09:04:31.761Z,101687.56
2018-06-03T09:07:04.339Z,101696.14
2018-06-03T09:09:34.232Z,101692.17
2018-06-03T09:12:09.966Z,101688.73
2018-06-03T09:14:44.953Z,101695.05
2018-06-03T09:17:14.712Z,101700.97
2018-06-03T09:19:47.533Z,101698.06
2018-06-03T09:22:19.795Z,101696.85
2018-06-03T09:24:51.859Z,101696.84
2018-06-03T09:27:27.166Z,101695.53
2018-06-03T09:30:03.666Z,101699.52
2018-06-03T09:32:35.335Z,101698.06
2018-06-03T09:35:10.665Z,101698.88
2018-06-03T09:37:45.414Z,101695.02
2018-06-03T09:40:15.393Z,101694.09
2018-06-03T09:42:46.116Z,101686.80
2018-06-03T09:45:20.967Z,101696.39
2018-06-03T09:47:54.490Z,101694.49
2018-06-03T09:50:26.369Z,101700.12
2018-06-03T09:52:58.056Z,101693.50
2018-06-03T09:55:32.062Z,101692.56
2018-06-03T09:58:04.964Z,101685.57
2018-06-03T10:00:37.543Z,101685.89
2018-06-03T10:03:08.675Z,101688.83
2018-06-03T10:05:44.579Z,101692.99
2018-06-03T10:08:19.371Z,101689.12
2018-06-03T10:10:50.561Z,101699.12
2018-06-03T10:13:20.082Z,101696.36
2018-06-03T10:15:51.098Z,101698.05
2018-06-03T10:18:23.427Z,101693.88
2018-06-03T10:20:53.669Z,101692.36
2018-06-03T10:23:25.045Z,101697.63
2018-06-03T10:25:54.941Z,101698.33
2018-06-03T10:28:25.155Z,101696.73
2018-06-03T10:30:54.710Z,101698.27
2018-06-03T10:33:24.246Z,101690.70
2018-06-03T10:35:53.446Z,101688.47
2018-06-03T10:38:22.938Z,101691.93
2018-06-03T10:40:53.714Z,101694.34
2018-06-03T10:43:25.007Z,101687.14
2018-06-03T10:45:56.037Z,101688.69
2018-06-03T10:48:27.991Z,101685.11
2018-06-03T10:50:58.823Z,101677.45
2018-06-03T10:53:29.637Z,101678.75
2018-06-03T10:55:59.614Z,101685.92
2018-06-03T10:58:30.266Z,101689.06
2018-06-03T11:01:00.031Z,101686.21
2018-06-03T11:03:30.367Z,101684.67
2018-06-03T11:06:01.263Z,101691.34
2018-06-03T11:08:31.483Z,101686.97
2018-06-03T11:11:01.068Z,101689.44
2018-06-03T11:13:30.471Z,101692.99
2018-06-03T11:16:00.662Z,101687.78
2018-06-03T11:18:30.202Z,101692.15
2018-06-03T11:21:00.190Z,101691.73
2018-06-03T11:23:29.763Z,101685.81
2018-06-03T11:25:59.422Z,101686.91
2018-06-03T11:28:29.001Z,101688.46
2018-06-03T11:30:59.975Z,101684.89
2018-06-03T11:33:29.769Z,101686.90
2018-06-03T11:36:00.007Z,101690.04
2018-06-03T11:38:31.257Z,101685.89
2018-06-03T11:41:01.850Z,101681.15
2018-06-03T11:43:32.032Z,101687.85
2018-06-03T11:46:01.919Z,101684.80
2018-06-03T11:48:32.294Z,101693.84
2018-06-03T11:51:06.713Z,101687.64
2018-06-03T11:53:36.230Z,101688.28
2018-06-03T11:56:05.936Z,101690.17
2018-06-03T11:58:54.648Z,101690.59
2018-06-03T12:01:25.303Z,101686.80
2018-06-03T12:03:54.664Z,101678.94
2018-06-03T12:06:24.185Z,101688.19
2018-06-03T12:08:54.334Z,101681.55
2018-06-03T12:11:24.608Z,101680.63
2018-06-03T12:13:56.007Z,101684.73
2018-06-03T12:16:26.842Z,101686.25
2018-06-03T12:18:57.387Z,101684.27
2018-06-03T12:21:26.940Z,101678.03
2018-06-03T12:23:57.868Z,101686.59
2018-06-03T12:26:28.064Z,101679.62
2018-06-03T12:28:57.698Z,101685.61
2018-06-03T12:31:27.935Z,101675.53
2018-06-03T12:33:57.441Z,101675.78
2018-06-03T12:36:27.743Z,101671.23
2018-06-03T12:38:57.252Z,101671.56
2018-06-03T12:41:27.429Z,101672.19
2018-06-03T12:43:56.933Z,101672.19
2018-06-03T12:46:27.803Z,101674.97
2018-06-03T12:48:58.074Z,101661.78
2018-06-03T12:51:28.360Z,101665.93
2018-06-03T12:53:59.368Z,101660.55
2018-06-03T12:56:29.194Z,101657.85
2018-06-03T12:58:58.834Z,101652.34
2018-06-03T13:01:28.667Z,101653.19
2018-06-03T13:03:58.283Z,101652.75
2018-06-03T13:06:28.297Z,101644.11
2018-06-03T13:08:58.586Z,101644.39
2018-06-03T13:11:28.206Z,101651.24
2018-06-03T13:13:57.690Z,101645.75
2018-06-03T13:16:27.617Z,101648.95
2018-06-03T13:18:57.353Z,101645.27
2018-06-03T13:21:27.791Z,101646.25
2018-06-03T13:23:57.269Z,101643.67
2018-06-03T13:26:26.777Z,101641.25
2018-06-03T13:28:56.266Z,101640.47
2018-06-03T13:31:25.679Z,101637.93
2018-06-03T13:33:55.162Z,101636.34
2018-06-03T13:36:24.639Z,101640.39
2018-06-03T13:38:54.043Z,101643.04
2018-06-03T13:41:23.510Z,101637.34
2018-06-03T13:43:53.443Z,101634.05
2018-06-03T13:46:23.078Z,101626.31
2018-06-03T13:48:52.532Z,101624.63
2018-06-03T13:51:22.150Z,101616.66
2018-06-03T13:53:51.753Z,101622.08
2018-06-03T13:56:21.271Z,101614.58
2018-06-03T13:58:50.825Z,101612.75
2018-06-03T14:01:20.694Z,101612.41
2018-06-03T14:03:50.229Z,101615.05
2018-06-03T14:06:19.779Z,101610.70
2018-06-03T14:08:49.829Z,101604.70
2018-06-03T14:11:19.798Z,101605.26
2018-06-03T14:13:48.966Z,101603.45
2018-06-03T14:16:19.383Z,101606.70
2018-06-03T14:18:48.866Z,101595.53
2018-06-03T14:21:18.359Z,101602.59
2018-06-03T14:23:48.509Z,101595.57
2018-06-03T14:26:17.957Z,101597.75
2018-06-03T14:28:47.241Z,101593.45
2018-06-03T14:31:16.712Z,101596.80
2018-06-03T14:33:46.204Z,101594.77
2018-06-03T14:36:15.838Z,101587.81
2018-06-03T14:38:45.349Z,101594.95
2018-06-03T14:41:14.832Z,101584.77
2018-06-03T14:43:44.661Z,101578.57
2018-06-03T14:46:14.067Z,101581.73
2018-06-03T14:48:43.603Z,101578.52
2018-06-03T14:51:13.073Z,101582.51
2018-06-03T14:53:42.572Z,101580.83
2018-06-03T14:56:12.186Z,101577.41
2018-06-03T14:58:41.630Z,101575.36
2018-06-03T15:01:11.170Z,101571.58
2018-06-03T15:03:40.591Z,101569.80
2018-06-03T15:06:10.691Z,101573.70
2018-06-03T15:08:40.204Z,101561.73
2018-06-03T15:11:09.688Z,101568.09
2018-06-03T15:13:39.337Z,101565.56
2018-06-03T15:16:09.197Z,101565.05
2018-06-03T15:18:38.766Z,101561.30
2018-06-03T15:21:08.218Z,101552.56
2018-06-03T15:23:37.896Z,101552.44
2018-06-03T15:26:07.461Z,101554.27
2018-06-03T15:28:37.385Z,101549.11
2018-06-03T15:31:07.224Z,101555.03
2018-06-03T15:33:36.891Z,101554.89
2018-06-03T15:36:06.156Z,101551.14
2018-06-03T15:38:35.737Z,101549.25
2018-06-03T15:41:05.693Z,101544.59
2018-06-03T15:43:35.798Z,101542.89
2018-06-03T15:46:05.911Z,101539.25
2018-06-03T15:48:35.411Z,101540.66
2018-06-03T15:51:04.973Z,101535.35
2018-06-03T15:53:34.980Z,101534.67
2018-06-03T15:56:04.449Z,101528.59
2018-06-03T15:58:34.682Z,101524.19
2018-06-03T16:01:04.173Z,101522.61
2018-06-03T16:03:34.020Z,101518.60
2018-06-03T16:06:03.517Z,101511.75
2018-06-03T16:08:33.212Z,101514.70
2018-06-03T16:11:02.871Z,101516.58
2018-06-03T16:13:32.432Z,101519.47
2018-06-03T16:16:01.953Z,101518.09
2018-06-03T16:18:31.424Z,101510.56
2018-06-03T16:21:00.689Z,101501.20
2018-06-03T16:23:30.117Z,101502.23
2018-06-03T16:26:00.509Z,101504.89
2018-06-03T16:28:30.105Z,101502.20
2018-06-03T16:30:59.630Z,101501.83
2018-06-03T16:33:29.301Z,101500.68
2018-06-03T16:35:58.898Z,101505.08
2018-06-03T16:38:28.450Z,101496.20
2018-06-03T16:40:58.037Z,101496.72
2018-06-03T16:43:27.534Z,101485.35
2018-06-03T16:45:58.000Z,101493.44
2018-06-03T16:48:28.148Z,101489.59
2018-06-03T16:50:57.715Z,101487.31
2018-06-03T16:53:27.225Z,101483.92
2018-06-03T16:55:56.758Z,101480.54
2018-06-03T16:58:26.350Z,101478.95
2018-06-03T17:00:56.398Z,101477.52
2018-06-03T17:03:25.975Z,101473.69
2018-06-03T17:05:55.681Z,101474.03
2018-06-03T17:08:24.881Z,101476.00
2018-06-03T17:10:55.034Z,101465.57
2018-06-03T17:13:25.178Z,101460.50
2018-06-03T17:15:56.424Z,101462.06
2018-06-03T17:20:54.605Z,101461.44
2018-06-03T17:23:26.971Z,101456.86
2018-06-03T17:25:56.544Z,101455.62
2018-06-03T17:28:26.021Z,101450.70
2018-06-03T17:30:55.657Z,101448.83
2018-06-03T17:33:25.636Z,101447.06
2018-06-03T17:35:55.190Z,101447.05
2018-06-03T17:38:24.772Z,101443.61
2018-06-03T17:40:54.424Z,101440.36
2018-06-03T17:43:23.902Z,101439.59
2018-06-03T17:45:56.564Z,101438.62
2018-06-03T17:48:26.056Z,101445.46
2018-06-03T17:51:00.783Z,101444.75
2018-06-03T17:53:30.850Z,101437.34
2018-06-03T17:56:01.069Z,101444.28
2018-06-03T17:58:30.754Z,101444.22
2018-06-03T18:01:00.253Z,101431.60
2018-06-03T18:03:29.689Z,101428.62
2018-06-03T18:05:59.283Z,101425.89
2018-06-03T18:08:28.885Z,101421.89
2018-06-03T18:10:58.377Z,101426.11
2018-06-03T18:13:28.214Z,101425.89
2018-06-03T18:15:57.918Z,101428.22
2018-06-03T18:18:27.410Z,101428.31
2018-06-03T18:20:56.919Z,101428.57
2018-06-03T18:23:26.366Z,101428.17
2018-06-03T18:25:55.613Z,101419.00
2018-06-03T18:28:25.125Z,101422.48
2018-06-03T18:30:55.572Z,101425.10
2018-06-03T18:33:25.151Z,101424.56
2018-06-03T18:35:54.756Z,101426.76
2018-06-03T18:38:24.260Z,101423.36
2018-06-03T18:40:53.919Z,101424.55
2018-06-03T18:43:23.359Z,101419.14
2018-06-03T18:45:52.951Z,101423.25
2018-06-03T18:48:22.731Z,101424.55
2018-06-03T18:50:52.223Z,101420.59
2018-06-03T18:53:21.726Z,101423.09
2018-06-03T18:55:51.345Z,101424.48
2018-06-03T18:58:21.074Z,101424.59
2018-06-03T19:00:50.561Z,101425.37
2018-06-03T19:03:20.482Z,101417.48
2018-06-03T19:05:50.003Z,101416.48
2018-06-03T19:08:19.469Z,101415.36
2018-06-03T19:10:48.974Z,101418.34
2018-06-03T19:13:18.518Z,101409.59
2018-06-03T19:15:47.938Z,101411.53
2018-06-03T19:18:17.529Z,101405.59
2018-06-03T19:20:46.994Z,101410.41
2018-06-03T19:23:16.834Z,101408.84
2018-06-03T19:25:46.326Z,101406.63
2018-06-03T19:28:15.849Z,101405.09
2018-06-03T19:30:45.242Z,101397.06
2018-06-03T19:33:15.662Z,101401.66
2018-06-03T19:35:45.481Z,101403.40
2018-06-03T19:38:14.995Z,101405.11
2018-06-03T19:40:44.601Z,101406.95
2018-06-03T19:43:14.092Z,101407.56
2018-06-03T19:48:12.058Z,101400.52
2018-06-03T19:50:42.114Z,101402.98
2018-06-03T19:53:11.597Z,101398.95
2018-06-03T19:55:41.194Z,101409.20
2018-06-03T19:58:10.766Z,101409.70
2018-06-03T20:00:41.063Z,101404.13
2018-06-03T20:03:10.549Z,101410.98
2018-06-03T20:05:40.184Z,101407.75
2018-06-03T20:08:10.242Z,101399.36
2018-06-03T20:10:39.598Z,101404.62
2018-06-03T20:13:09.178Z,101405.34
2018-06-03T20:15:39.330Z,101411.12
2018-06-03T20:18:08.956Z,101406.62
2018-06-03T20:20:38.507Z,101417.16
2018-06-03T20:23:08.033Z,101413.79
2018-06-03T20:25:37.738Z,101414.62
2018-06-03T20:28:07.376Z,101409.66
2018-06-03T20:30:37.013Z,101409.73
2018-06-03T20:33:06.391Z,101408.93
2018-06-03T20:35:35.843Z,101412.05
2018-06-03T20:38:06.771Z,101409.66
2018-06-03T20:40:35.935Z,101412.78
2018-06-03T20:43:05.549Z,101414.98
2018-06-03T20:45:35.219Z,101417.55
2018-06-03T20:48:05.544Z,101423.47
2018-06-03T20:50:35.070Z,101424.78
2018-06-03T20:53:05.427Z,101426.52
2018-06-03T20:55:34.964Z,101422.31
2018-06-03T20:58:04.630Z,101419.80
2018-06-03T21:00:34.123Z,101426.96
2018-06-03T21:03:04.065Z,101424.08
2018-06-03T21:05:33.669Z,101421.55
2018-06-03T21:08:03.120Z,101430.39
2018-06-03T21:10:32.933Z,101426.23
2018-06-03T21:13:03.048Z,101431.42
2018-06-03T21:15:33.021Z,101432.55
2018-06-03T21:18:02.653Z,101428.34
2018-06-03T21:20:32.482Z,101425.34
2018-06-03T21:23:03.311Z,101427.80
2018-06-03T21:25:32.589Z,101430.25
2018-06-03T21:28:02.273Z,101426.35
2018-06-03T21:30:31.748Z,101428.84
2018-06-03T21:33:03.089Z,101426.23
2018-06-03T21:35:33.053Z,101424.95
2018-06-03T21:38:02.534Z,101427.44
2018-06-03T21:40:33.014Z,101429.54
2018-06-03T21:43:02.674Z,101431.55
2018-06-03T21:45:32.277Z,101431.61
2018-06-03T21:48:01.783Z,101430.32
2018-06-03T21:50:31.475Z,101422.72
2018-06-03T21:53:01.891Z,101423.66
2018-06-03T21:55:31.780Z,101425.79
2018-06-03T21:58:01.636Z,101420.80
2018-06-03T22:00:32.275Z,101425.81
2018-06-03T22:03:01.976Z,101422.06
2018-06-03T22:05:32.188Z,101422.88
2018-06-03T22:08:01.920Z,101424.20
2018-06-03T22:10:31.394Z,101424.25
2018-06-03T22:13:01.643Z,101425.06
2018-06-03T22:15:31.461Z,101423.89
2018-06-03T22:18:02.666Z,101427.28
2018-06-03T22:20:32.124Z,101425.23
2018-06-03T22:23:01.617Z,101419.80
2018-06-03T22:25:31.217Z,101421.08
2018-06-03T22:28:00.921Z,101423.67
2018-06-03T22:30:30.685Z,101419.08
2018-06-03T22:33:00.322Z,101422.02
2018-06-03T22:35:29.900Z,101413.30
2018-06-03T22:37:59.654Z,101414.98
2018-06-03T22:40:29.345Z,101422.09
2018-06-03T22:42:59.821Z,101420.02
2018-06-03T22:45:29.470Z,101422.49
2018-06-03T22:47:58.889Z,101423.42
2018-06-03T22:50:28.473Z,101426.77
2018-06-03T22:52:58.162Z,101426.80
2018-06-03T22:55:28.440Z,101427.66
2018-06-03T22:57:57.784Z,101431.84
2018-06-03T23:00:29.518Z,101427.27
2018-06-03T23:03:04.492Z,101423.52
2018-06-03T23:05:35.286Z,101421.85
2018-06-03T23:08:04.647Z,101415.56
2018-06-03T23:10:34.338Z,101424.78
2018-06-03T23:13:03.899Z,101418.54
2018-06-03T23:15:33.489Z,101426.97
2018-06-03T23:18:03.010Z,101425.31
2018-06-03T23:20:32.487Z,101417.80
2018-06-03T23:23:01.985Z,101423.68
2018-06-03T23:25:31.523Z,101427.47
2018-06-03T23:28:01.935Z,101424.56
2018-06-03T23:30:31.433Z,101417.42
2018-06-03T23:33:01.174Z,101416.14
2018-06-03T23:35:30.685Z,101410.27
2018-06-03T23:38:00.285Z,101416.19
2018-06-03T23:40:30.017Z,101407.80
2018-06-03T23:42:59.528Z,101406.92
2018-06-03T23:45:28.941Z,101407.38
2018-06-03T23:47:58.746Z,101400.66
2018-06-03T23:50:28.337Z,101410.34
2018-06-03T23:52:58.041Z,101399.00
2018-06-03T23:55:27.505Z,101394.81
2018-06-03T23:57:57.048Z,101401.96
